Time;durP1;ratioP1;P1;durP2;ratioP2;P2;SDS_P1;SDS_P2;PMS_P1;PMS_P2;Temp;Humidity;BMP_temperature;BMP_pressure;BME280_temperature;BME280_humidity;BME280_pressure;Samples;Min_cycle;Max_cycle;Signal;HPM_P1;HPM_P2
2022/04/26 03:40:39;;;;;;;20.98;11.70;;;;;;;;;;10486839;28;20071;-66
2022/04/26 03:45:43;;;;;;;18.50;10.77;;;;;;;;;;10470101;28;20340;-67
2022/04/26 03:50:45;;;;;;;18.20;10.50;;;;;;;;;;10461663;28;20037;-66
2022/04/26 03:55:47;;;;;;;18.02;10.23;;;;;;;;;;10472863;28;20049;-66
2022/04/26 04:00:51;;;;;;;20.80;10.05;;;;;;;;;;10471749;28;20040;-67
2022/04/26 04:05:54;;;;;;;16.00;9.13;;;;;;;;;;10472032;28;20040;-66
2022/04/26 04:10:56;;;;;;;14.20;8.30;;;;;;;;;;10471539;28;20049;-66
2022/04/26 04:16:00;;;;;;;16.45;9.88;;;;;;;;;;10473458;28;20060;-66
2022/04/26 04:21:02;;;;;;;14.85;9.63;;;;;;;;;;10472408;28;20045;-67
2022/04/26 04:26:05;;;;;;;15.88;9.88;;;;;;;;;;10472302;28;20057;-67
2022/04/26 04:31:10;;;;;;;13.75;9.65;;;;;;;;;;10470337;28;20045;-66
2022/04/26 04:36:12;;;;;;;20.43;9.73;;;;;;;;;;10470883;28;20056;-66
2022/04/26 04:41:15;;;;;;;14.95;9.90;;;;;;;;;;10471451;28;20074;-66
2022/04/26 04:46:19;;;;;;;15.43;10.52;;;;;;;;;;10470473;28;20366;-67
2022/04/26 04:51:21;;;;;;;24.38;14.43;;;;;;;;;;10470832;28;20049;-67
2022/04/26 04:56:24;;;;;;;16.85;9.88;;;;;;;;;;10470975;28;20064;-67
2022/04/26 05:01:28;;;;;;;14.55;10.82;;;;;;;;;;10469605;28;20363;-67
2022/04/26 05:06:30;;;;;;;19.60;11.50;;;;;;;;;;10472047;28;20252;-67
2022/04/26 05:11:33;;;;;;;26.02;11.73;;;;;;;;;;10466727;28;20043;-67
2022/04/26 05:16:37;;;;;;;18.42;10.60;;;;;;;;;;10472422;28;20115;-67
2022/04/26 05:21:39;;;;;;;17.67;10.63;;;;;;;;;;10468479;28;20049;-67
2022/04/26 05:26:42;;;;;;;16.15;9.82;;;;;;;;;;10469293;28;20091;-67
2022/04/26 05:31:46;;;;;;;22.98;11.27;;;;;;;;;;10470225;28;20057;-67
2022/04/26 05:36:48;;;;;;;15.60;10.65;;;;;;;;;;10466395;28;20052;-66
2022/04/26 05:41:51;;;;;;;12.77;9.52;;;;;;;;;;10476761;28;20162;-67
2022/04/26 05:46:54;;;;;;;13.82;10.13;;;;;;;;;;10476598;28;20045;-66
2022/04/26 05:51:56;;;;;;;15.25;9.90;;;;;;;;;;10477484;28;20076;-67
2022/04/26 05:56:59;;;;;;;12.70;8.95;;;;;;;;;;10468134;28;20041;-68
2022/04/26 06:02:03;;;;;;;15.35;9.90;;;;;;;;;;10476077;28;20053;-65
2022/04/26 06:07:08;;;;;;;14.02;9.70;;;;;;;;;;10438916;28;20068;-67
2022/04/26 06:12:10;;;;;;;10.02;7.80;;;;;;;;;;10470866;28;20049;-67
2022/04/26 06:17:14;;;;;;;9.10;7.90;;;;;;;;;;10475917;28;20049;-67
2022/04/26 06:22:17;;;;;;;8.93;7.03;;;;;;;;;;10475562;28;20306;-67
2022/04/26 06:27:20;;;;;;;10.88;8.98;;;;;;;;;;10471410;28;20049;-67
2022/04/26 06:32:24;;;;;;;13.65;7.75;;;;;;;;;;10476011;28;20049;-67
2022/04/26 06:37:26;;;;;;;6.47;5.85;;;;;;;;;;10475673;28;20194;-68
2022/04/26 06:42:28;;;;;;;7.30;5.85;;;;;;;;;;10467685;28;20102;-67
2022/04/26 06:47:32;;;;;;;5.05;4.20;;;;;;;;;;10474916;28;20244;-67
2022/04/26 06:52:34;;;;;;;5.65;4.07;;;;;;;;;;10475104;28;20049;-67
2022/04/26 06:57:37;;;;;;;3.03;2.72;;;;;;;;;;10474871;28;20053;-68
2022/04/26 07:02:41;;;;;;;3.67;2.72;;;;;;;;;;10474162;28;20052;-68
2022/04/26 07:07:44;;;;;;;2.78;2.55;;;;;;;;;;10475695;28;20049;-68
2022/04/26 07:12:46;;;;;;;4.63;2.67;;;;;;;;;;10473973;28;20048;-68
2022/04/26 07:17:50;;;;;;;3.72;2.53;;;;;;;;;;10475007;28;20040;-68
2022/04/26 07:22:53;;;;;;;2.88;2.15;;;;;;;;;;10472940;28;20048;-67
2022/04/26 07:27:55;;;;;;;4.72;2.70;;;;;;;;;;10488448;28;20056;-68
2022/04/26 07:38:19;;;;;;;4.03;2.60;;;;;;;;;;10471790;28;20044;-68
2022/04/26 07:43:22;;;;;;;3.65;2.47;;;;;;;;;;10439845;28;20099;-67
2022/04/26 07:48:26;;;;;;;3.53;2.70;;;;;;;;;;10432293;28;20057;-68
2022/04/26 07:53:28;;;;;;;3.92;2.80;;;;;;;;;;10466929;28;20305;-68
2022/04/26 07:58:32;;;;;;;4.63;2.87;;;;;;;;;;10472495;28;20052;-67
2022/04/26 08:03:36;;;;;;;4.32;3.30;;;;;;;;;;10472054;28;20406;-68
2022/04/26 08:08:39;;;;;;;4.07;3.30;;;;;;;;;;10472088;28;20050;-70
2022/04/26 08:13:43;;;;;;;3.53;3.30;;;;;;;;;;10471593;28;20072;-68
2022/04/26 08:18:47;;;;;;;3.92;3.60;;;;;;;;;;10471802;28;20213;-68
2022/04/26 08:29:12;;;;;;;4.30;4.00;;;;;;;;;;10484632;28;20047;-67
2022/04/26 08:34:16;;;;;;;4.47;4.10;;;;;;;;;;10468400;28;21372;-68
2022/04/26 08:39:20;;;;;;;5.25;4.95;;;;;;;;;;10470843;28;20252;-67
2022/04/26 08:44:22;;;;;;;6.18;5.88;;;;;;;;;;10437489;28;20053;-67
2022/04/26 08:54:45;;;;;;;6.70;6.20;;;;;;;;;;10468112;28;20052;-68
2022/04/26 08:59:49;;;;;;;5.13;4.82;;;;;;;;;;10470330;28;20049;-68
2022/04/26 09:05:00;;;;;;;3.92;3.63;;;;;;;;;;10468705;28;20045;-68
2022/04/26 09:10:07;;;;;;;;;;;;;;;;;;10486715;28;20099;-69
2022/04/26 09:15:16;;;;;;;2.22;2.13;;;;;;;;;;10473378;28;19931;-69
2022/04/26 09:20:32;;;;;;;2.72;1.60;;;;;;;;;;10479142;28;20087;-67
2022/04/26 09:25:35;;;;;;;1.90;1.55;;;;;;;;;;10478154;28;20064;-68
2022/04/26 09:30:38;;;;;;;1.75;1.60;;;;;;;;;;10479857;28;20343;-68
2022/04/26 09:35:41;;;;;;;6.03;1.63;;;;;;;;;;10475698;28;20060;-68
2022/04/26 09:40:48;;;;;;;2.95;1.50;;;;;;;;;;10478672;28;20064;-67
2022/04/26 09:45:55;;;;;;;1.92;1.83;;;;;;;;;;10476271;28;20057;-68
2022/04/26 09:51:00;;;;;;;2.30;2.10;;;;;;;;;;10492131;28;20043;-67
2022/04/26 09:56:04;;;;;;;3.90;2.53;;;;;;;;;;10471914;28;20238;-67
2022/04/26 10:01:06;;;;;;;2.92;2.60;;;;;;;;;;10476025;28;20083;-67
2022/04/26 10:06:10;;;;;;;5.93;2.90;;;;;;;;;;10476717;28;20267;-68
2022/04/26 10:11:13;;;;;;;5.00;2.50;;;;;;;;;;10475049;28;20348;-67
2022/04/26 10:16:21;;;;;;;3.30;2.83;;;;;;;;;;10477341;28;20053;-66
2022/04/26 10:21:50;;;;;;;3.42;3.13;;;;;;;;;;10485647;28;20040;-68
2022/04/26 10:26:53;;;;;;;5.20;3.45;;;;;;;;;;10476245;28;20405;-67
2022/04/26 10:32:00;;;;;;;3.17;2.88;;;;;;;;;;10475876;28;20160;-67
2022/04/26 10:37:33;;;;;;;3.38;3.08;;;;;;;;;;10475899;28;20068;-66
2022/04/26 10:42:35;;;;;;;4.03;3.15;;;;;;;;;;10489233;28;20048;-67
2022/04/26 10:47:40;;;;;;;3.03;2.78;;;;;;;;;;10476185;28;20107;-67
2022/04/26 10:52:47;;;;;;;3.67;3.05;;;;;;;;;;10456851;28;20080;-67
2022/04/26 10:57:55;;;;;;;4.22;2.70;;;;;;;;;;10486052;28;20057;-67
2022/04/26 11:03:02;;;;;;;3.25;2.90;;;;;;;;;;10485291;28;20044;-68
2022/04/26 11:08:07;;;;;;;3.38;2.80;;;;;;;;;;10486646;28;20037;-67
2022/04/26 11:13:09;;;;;;;2.83;2.55;;;;;;;;;;10473865;28;20057;-68
2022/04/26 11:18:20;;;;;;;5.28;2.90;;;;;;;;;;10473807;28;20045;-68
2022/04/26 11:28:58;;;;;;;3.25;2.40;;;;;;;;;;10470590;28;20052;-69
2022/04/26 11:34:00;;;;;;;2.47;2.28;;;;;;;;;;10475166;28;20052;-68
2022/04/26 11:39:04;;;;;;;4.10;1.98;;;;;;;;;;10466217;28;20359;-68
2022/04/26 11:44:07;;;;;;;2.30;2.10;;;;;;;;;;10446960;28;20053;-67
2022/04/26 11:49:10;;;;;;;2.67;2.05;;;;;;;;;;10472065;28;20104;-68
2022/04/26 11:54:34;;;;;;;2.42;2.20;;;;;;;;;;10475477;28;20045;-69
2022/04/26 11:59:39;;;;;;;4.65;1.92;;;;;;;;;;10486891;28;20057;-67
2022/04/26 12:04:41;;;;;;;3.47;2.20;;;;;;;;;;10472649;28;20098;-67
2022/04/26 12:09:46;;;;;;;2.75;2.45;;;;;;;;;;10472588;28;20347;-66
2022/04/26 12:14:50;;;;;;;6.03;2.40;;;;;;;;;;10472411;28;20045;-67
2022/04/26 12:19:52;;;;;;;;;;;;;;;;;;10473879;28;20230;-67
2022/04/26 12:24:56;;;;;;;4.93;2.72;;;;;;;;;;10474165;28;19917;-67
2022/04/26 12:29:59;;;;;;;;;;;;;;;;;;10469653;28;20041;-69
2022/04/26 12:35:01;;;;;;;3.15;2.58;;;;;;;;;;10472543;28;19928;-67
2022/04/26 12:40:11;;;;;;;4.15;2.88;;;;;;;;;;10472455;28;20048;-68
2022/04/26 12:45:21;;;;;;;4.18;2.70;;;;;;;;;;10485868;28;20109;-69
2022/04/26 12:50:31;;;;;;;4.00;2.63;;;;;;;;;;10475319;28;20061;-67
2022/04/26 12:55:36;;;;;;;4.95;3.42;;;;;;;;;;10494011;28;20044;-67
2022/04/26 13:00:40;;;;;;;10.07;3.60;;;;;;;;;;10477487;28;20142;-67
2022/04/26 13:05:45;;;;;;;4.70;3.50;;;;;;;;;;10439223;28;20053;-67
2022/04/26 13:10:49;;;;;;;3.33;2.50;;;;;;;;;;10474539;28;20361;-68
2022/04/26 13:15:53;;;;;;;13.52;7.78;;;;;;;;;;10454944;28;20106;-70
2022/04/26 13:20:55;;;;;;;18.20;10.43;;;;;;;;;;10480237;28;20041;-68
2022/04/26 13:26:00;;;;;;;5.10;3.30;;;;;;;;;;10478947;28;20348;-69
2022/04/26 13:31:02;;;;;;;4.70;2.92;;;;;;;;;;10478764;28;20324;-69
2022/04/26 13:36:07;;;;;;;4.30;3.17;;;;;;;;;;10478942;28;20072;-71
2022/04/26 13:41:12;;;;;;;8.00;3.20;;;;;;;;;;10477507;28;20045;-71
2022/04/26 13:46:14;;;;;;;7.53;3.40;;;;;;;;;;10479254;28;20052;-68
2022/04/26 13:51:17;;;;;;;4.60;2.83;;;;;;;;;;10467460;28;20320;-68
2022/04/26 13:56:20;;;;;;;6.70;3.25;;;;;;;;;;10479977;28;20044;-66
2022/04/26 14:01:23;;;;;;;6.23;3.60;;;;;;;;;;10478069;28;20036;-67
2022/04/26 14:06:26;;;;;;;3.30;3.00;;;;;;;;;;10476876;28;20302;-67
2022/04/26 14:11:30;;;;;;;4.35;3.00;;;;;;;;;;10477402;28;20353;-66
2022/04/26 14:21:52;;;;;;;3.47;3.13;;;;;;;;;;10466205;28;20053;-66
2022/04/26 14:26:59;;;;;;;6.60;3.60;;;;;;;;;;10462847;28;20064;-66
2022/04/26 14:32:02;;;;;;;6.68;3.50;;;;;;;;;;10490453;28;20037;-66
2022/04/26 14:37:04;;;;;;;23.40;13.60;;;;;;;;;;10472970;28;20056;-67
2022/04/26 14:42:09;;;;;;;9.18;3.95;;;;;;;;;;10447678;28;20053;-66
2022/04/26 14:47:12;;;;;;;;;;;;;;;;;;10473582;28;20049;-68
2022/04/26 14:52:21;;;;;;;4.80;3.60;;;;;;;;;;10472942;28;19928;-67
2022/04/26 14:57:25;;;;;;;10.48;4.90;;;;;;;;;;10489712;28;20052;-68
2022/04/26 15:02:36;;;;;;;20.33;5.88;;;;;;;;;;10466408;28;20324;-68
2022/04/26 15:18:21;;;;;;;7.63;5.47;;;;;;;;;;10469618;28;20053;-69
2022/04/26 15:23:23;;;;;;;6.65;4.38;;;;;;;;;;10476102;28;20069;-67
2022/04/26 15:28:30;;;;;;;7.18;3.33;;;;;;;;;;10475095;28;20236;-67
2022/04/26 15:33:32;;;;;;;4.38;3.95;;;;;;;;;;10471497;28;20222;-68
2022/04/26 15:38:34;;;;;;;5.43;4.00;;;;;;;;;;10469595;28;20091;-69
2022/04/26 15:43:38;;;;;;;11.18;6.53;;;;;;;;;;10473162;28;20059;-67
2022/04/26 15:48:47;;;;;;;6.70;4.10;;;;;;;;;;10472717;28;20041;-68
2022/04/26 15:53:49;;;;;;;5.22;3.10;;;;;;;;;;10473254;28;20060;-66
2022/04/26 15:58:54;;;;;;;6.32;3.83;;;;;;;;;;10456256;28;20041;-68
2022/04/26 16:03:56;;;;;;;9.15;5.05;;;;;;;;;;10472539;28;20059;-67
2022/04/26 16:24:57;;;;;;;9.98;4.40;;;;;;;;;;10470819;28;20065;-68
2022/04/26 16:30:02;;;;;;;10.57;5.70;;;;;;;;;;10473954;28;20045;-68
2022/04/26 16:35:05;;;;;;;7.50;5.07;;;;;;;;;;10473126;28;20057;-68
2022/04/26 16:40:09;;;;;;;4.00;3.70;;;;;;;;;;10472890;28;20082;-66
2022/04/26 16:45:13;;;;;;;13.65;6.82;;;;;;;;;;10469284;28;20059;-67
2022/04/26 16:50:16;;;;;;;5.43;4.17;;;;;;;;;;10473522;28;20286;-67
2022/04/26 16:55:18;;;;;;;5.28;4.07;;;;;;;;;;10470895;28;20327;-68
2022/04/26 17:00:22;;;;;;;9.95;4.57;;;;;;;;;;10469920;28;20158;-68
2022/04/26 17:05:27;;;;;;;7.72;4.43;;;;;;;;;;10472812;28;20335;-66
2022/04/26 17:10:29;;;;;;;8.73;5.00;;;;;;;;;;10471967;28;20079;-67
2022/04/26 17:15:33;;;;;;;8.65;4.47;;;;;;;;;;10472017;28;20098;-68
2022/04/26 17:20:35;;;;;;;7.88;4.88;;;;;;;;;;10471821;28;20053;-68
2022/04/26 17:25:38;;;;;;;6.65;5.20;;;;;;;;;;10470709;28;20099;-67
2022/04/26 17:30:42;;;;;;;7.53;5.32;;;;;;;;;;10472124;28;20041;-68
2022/04/26 17:35:44;;;;;;;6.03;5.15;;;;;;;;;;10445516;28;20056;-67
2022/04/26 17:40:47;;;;;;;11.43;7.03;;;;;;;;;;10447773;28;20040;-67
2022/04/26 17:45:51;;;;;;;20.45;12.85;;;;;;;;;;10478740;28;20057;-67
2022/04/26 17:50:53;;;;;;;24.98;14.57;;;;;;;;;;10464647;28;20108;-68
2022/04/26 18:01:18;;;;;;;21.60;9.52;;;;;;;;;;10452582;28;20049;-66
2022/04/26 18:06:20;;;;;;;13.65;6.38;;;;;;;;;;10477955;28;20041;-66
2022/04/26 18:11:23;;;;;;;15.05;7.47;;;;;;;;;;10478170;28;20041;-67
2022/04/26 18:16:27;;;;;;;22.67;10.85;;;;;;;;;;10477746;28;20049;-67
2022/04/26 18:21:32;;;;;;;25.35;12.60;;;;;;;;;;10477730;28;20049;-66
2022/04/26 18:26:36;;;;;;;13.80;8.80;;;;;;;;;;10448717;28;20133;-68
2022/04/26 18:31:41;;;;;;;16.10;8.45;;;;;;;;;;10458601;28;20044;-67
2022/04/26 18:36:44;;;;;;;14.43;6.95;;;;;;;;;;10474634;28;20332;-66
2022/04/26 18:41:46;;;;;;;15.43;9.57;;;;;;;;;;10477449;28;20052;-67
2022/04/26 18:46:50;;;;;;;17.48;8.73;;;;;;;;;;10474044;28;20320;-67
2022/04/26 18:51:54;;;;;;;16.25;9.77;;;;;;;;;;10476430;28;20162;-67
2022/04/26 18:56:57;;;;;;;13.20;7.87;;;;;;;;;;10476565;28;20083;-67
2022/04/26 19:02:00;;;;;;;17.13;8.48;;;;;;;;;;10474590;28;20086;-66
2022/04/26 19:07:03;;;;;;;13.95;8.30;;;;;;;;;;10476111;28;20347;-66
2022/04/26 19:12:19;;;;;;;11.38;8.05;;;;;;;;;;10473452;28;20041;-67
2022/04/26 19:17:22;;;;;;;17.20;8.87;;;;;;;;;;10488791;28;20200;-66
2022/04/26 19:22:27;;;;;;;20.63;12.95;;;;;;;;;;10471814;28;20064;-66
2022/04/26 19:27:30;;;;;;;15.73;10.50;;;;;;;;;;10473819;28;20351;-66
2022/04/26 19:32:34;;;;;;;22.98;13.23;;;;;;;;;;10475411;28;20039;-67
2022/04/26 19:37:36;;;;;;;18.77;10.70;;;;;;;;;;10452830;28;20060;-66
2022/04/26 19:42:39;;;;;;;15.18;8.27;;;;;;;;;;10474561;28;20041;-66
2022/04/26 19:47:42;;;;;;;11.88;6.95;;;;;;;;;;10475390;28;20045;-67
2022/04/26 19:52:45;;;;;;;24.38;12.75;;;;;;;;;;10459069;28;20049;-68
2022/04/26 19:57:47;;;;;;;24.65;12.38;;;;;;;;;;10442865;28;20075;-66
2022/04/26 20:02:51;;;;;;;65.38;43.05;;;;;;;;;;10470167;28;20052;-67
2022/04/26 20:07:53;;;;;;;32.38;18.67;;;;;;;;;;10455269;28;20072;-67
2022/04/26 20:12:55;;;;;;;32.05;17.98;;;;;;;;;;10472915;28;20049;-66
2022/04/26 20:18:00;;;;;;;26.50;15.52;;;;;;;;;;10473403;28;20348;-66
2022/04/26 20:23:04;;;;;;;39.13;17.45;;;;;;;;;;10449881;28;20049;-66
2022/04/26 20:33:29;;;;;;;19.80;12.80;;;;;;;;;;10488993;28;20370;-68
2022/04/26 20:38:32;;;;;;;26.10;16.05;;;;;;;;;;10472044;28;20324;-66
2022/04/26 20:43:34;;;;;;;27.88;16.35;;;;;;;;;;10472677;28;20052;-67
2022/04/26 20:48:37;;;;;;;27.60;16.67;;;;;;;;;;10471819;28;20292;-67
2022/04/26 20:53:40;;;;;;;38.85;21.48;;;;;;;;;;10471748;28;20374;-68
2022/04/26 20:58:42;;;;;;;41.67;23.52;;;;;;;;;;10471777;28;20057;-67
2022/04/26 21:03:45;;;;;;;41.83;23.17;;;;;;;;;;10472462;28;20041;-67
2022/04/26 21:08:49;;;;;;;38.88;22.17;;;;;;;;;;10463646;28;20052;-68
2022/04/26 21:13:51;;;;;;;43.20;22.58;;;;;;;;;;10472148;28;20049;-67
2022/04/26 21:18:55;;;;;;;44.55;22.40;;;;;;;;;;10462011;28;20095;-67
2022/04/26 21:23:58;;;;;;;38.00;20.80;;;;;;;;;;10477216;28;20076;-66
2022/04/26 21:29:00;;;;;;;33.45;17.65;;;;;;;;;;10480540;28;20053;-66
2022/04/26 21:34:04;;;;;;;32.58;18.27;;;;;;;;;;10477212;28;20220;-67
2022/04/26 21:39:06;;;;;;;25.83;16.27;;;;;;;;;;10478303;28;20244;-68
2022/04/26 21:44:08;;;;;;;30.92;17.40;;;;;;;;;;10478669;28;20147;-67
2022/04/26 21:51:31;;;;;;;29.15;17.58;;;;;;;;;;10478934;28;20244;-67
2022/04/26 21:54:36;;;;;;;33.08;17.48;;;;;;;;;;10479700;28;20221;-66
2022/04/26 21:59:38;;;;;;;21.85;14.13;;;;;;;;;;10478382;28;20063;-67
2022/04/26 22:04:42;;;;;;;27.15;13.88;;;;;;;;;;10477348;28;20260;-68
2022/04/26 22:09:44;;;;;;;20.40;13.57;;;;;;;;;;10479318;28;20320;-66
2022/04/26 22:14:47;;;;;;;21.35;13.93;;;;;;;;;;10477926;28;20285;-67
2022/04/26 22:19:50;;;;;;;22.45;13.15;;;;;;;;;;10477582;28;20136;-67
2022/04/26 22:24:54;;;;;;;19.08;12.88;;;;;;;;;;10477328;28;20071;-66
2022/04/26 22:29:57;;;;;;;22.08;12.38;;;;;;;;;;10475625;28;20087;-67
2022/04/26 22:35:02;;;;;;;18.00;12.43;;;;;;;;;;10476913;28;20086;-65
2022/04/26 22:40:06;;;;;;;22.52;12.05;;;;;;;;;;10476961;28;20049;-67
2022/04/26 22:45:09;;;;;;;18.83;11.57;;;;;;;;;;10461527;28;20344;-67
2022/04/26 22:50:15;;;;;;;22.17;11.20;;;;;;;;;;10451846;28;20337;-67
2022/04/26 22:55:17;;;;;;;19.52;11.85;;;;;;;;;;10489644;28;20040;-67
2022/04/26 23:00:19;;;;;;;18.25;10.43;;;;;;;;;;10477011;28;20037;-67
2022/04/26 23:05:23;;;;;;;19.08;9.60;;;;;;;;;;10473971;28;20053;-67
2022/04/26 23:10:26;;;;;;;17.48;8.60;;;;;;;;;;10475165;28;20106;-67
2022/04/26 23:15:28;;;;;;;16.52;8.23;;;;;;;;;;10476631;28;20052;-67
2022/04/26 23:20:32;;;;;;;20.02;8.75;;;;;;;;;;10456322;28;20271;-67
2022/04/26 23:25:35;;;;;;;19.30;9.85;;;;;;;;;;10473183;28;20065;-66
2022/04/26 23:30:38;;;;;;;17.45;10.40;;;;;;;;;;10474577;28;20037;-66
2022/04/26 23:35:43;;;;;;;18.25;9.55;;;;;;;;;;10473038;28;20061;-65
2022/04/26 23:40:46;;;;;;;14.30;9.32;;;;;;;;;;10473811;28;20056;-67
2022/04/26 23:45:49;;;;;;;15.10;9.13;;;;;;;;;;10474497;28;20091;-66
2022/04/26 23:56:12;;;;;;;17.20;9.35;;;;;;;;;;10486773;28;20052;-66
